createdAt,value
2023-02-21T00:02:04.580Z,55.72
2023-02-21T00:04:50.468Z,54.78
2023-02-21T00:07:36.932Z,57.38
2023-02-21T00:10:24.306Z,55.90
2023-02-21T00:13:10.550Z,56.05
2023-02-21T00:15:56.426Z,57.53
2023-02-21T00:18:42.473Z,55.28
2023-02-21T00:21:28.305Z,54.63
2023-02-21T00:24:14.216Z,54.85
2023-02-21T00:27:00.242Z,54.55
2023-02-21T00:29:46.368Z,55.20
2023-02-21T00:32:32.760Z,54.83
2023-02-21T00:35:18.737Z,55.92
2023-02-21T00:38:08.818Z,53.35
2023-02-21T00:40:55.134Z,52.20
2023-02-21T00:43:52.111Z,51.47
2023-02-21T00:46:38.934Z,53.13
2023-02-21T00:49:25.318Z,56.38
2023-02-21T00:52:11.338Z,54.05
2023-02-21T00:54:57.654Z,54.47
2023-02-21T00:57:44.254Z,56.20
2023-02-21T01:00:39.146Z,54.03
2023-02-21T01:03:25.582Z,54.60
2023-02-21T01:06:12.518Z,56.45
2023-02-21T01:09:03.531Z,55.97
2023-02-21T01:11:51.437Z,55.20
2023-02-21T01:14:37.539Z,51.13
2023-02-21T01:17:23.544Z,57.58
2023-02-21T01:20:09.311Z,55.20
2023-02-21T01:22:55.170Z,51.50
2023-02-21T01:25:41.023Z,52.08
2023-02-21T01:28:26.972Z,53.90
2023-02-21T01:31:13.491Z,55.33
2023-02-21T01:34:01.100Z,53.75
2023-02-21T01:36:46.970Z,52.33
2023-02-21T01:39:33.619Z,55.13
2023-02-21T01:42:20.030Z,53.33
2023-02-21T01:45:07.369Z,52.20
2023-02-21T01:47:53.648Z,56.45
2023-02-21T01:50:49.555Z,54.92
2023-02-21T01:53:38.991Z,55.25
2023-02-21T01:56:25.961Z,52.55
2023-02-21T01:59:15.906Z,53.42
2023-02-21T02:02:20.608Z,53.40
2023-02-21T02:05:08.077Z,53.28
2023-02-21T02:07:55.588Z,54.35
2023-02-21T02:10:41.870Z,55.33
2023-02-21T02:13:15.323Z,53.03
2023-02-21T02:16:06.948Z,55.25
2023-02-21T02:18:53.226Z,39.70
2023-02-21T02:21:34.471Z,53.35
2023-02-21T02:24:50.012Z,55.65
2023-02-21T02:27:45.125Z,55.67
2023-02-21T02:30:41.775Z,58.65
2023-02-21T02:33:27.529Z,57.50
2023-02-21T02:36:17.750Z,58.08
2023-02-21T02:38:54.107Z,59.10
2023-02-21T02:41:28.942Z,61.33
2023-02-21T02:44:20.930Z,62.05
2023-02-21T02:46:49.959Z,63.33
2023-02-21T02:49:22.884Z,57.05
2023-02-21T02:51:52.056Z,54.30
2023-02-21T02:54:22.319Z,54.00
2023-02-21T02:56:49.953Z,55.85
2023-02-21T02:59:22.132Z,53.30
2023-02-21T03:01:49.999Z,57.03
2023-02-21T03:04:41.291Z,53.58
2023-02-21T03:07:24.773Z,52.42
2023-02-21T03:10:18.524Z,54.45
2023-02-21T03:12:53.045Z,55.55
2023-02-21T03:15:27.055Z,54.30
2023-02-21T03:18:00.853Z,53.85
2023-02-21T03:20:29.825Z,56.20
2023-02-21T03:22:58.352Z,56.20
2023-02-21T03:25:27.754Z,55.67
2023-02-21T03:28:01.930Z,55.08
2023-02-21T03:30:36.132Z,54.58
2023-02-21T03:33:04.012Z,52.53
2023-02-21T03:35:31.438Z,55.33
2023-02-21T03:38:00.218Z,55.47
2023-02-21T03:40:32.029Z,55.78
2023-02-21T03:43:03.139Z,56.75
2023-02-21T03:45:35.190Z,54.88
2023-02-21T03:48:17.704Z,57.47
2023-02-21T03:50:51.569Z,55.67
2023-02-21T03:53:20.433Z,57.03
2023-02-21T03:55:48.056Z,57.45
2023-02-21T03:58:21.441Z,57.47
2023-02-21T04:00:50.233Z,56.88
2023-02-21T04:03:18.120Z,55.28
2023-02-21T04:05:52.131Z,60.13
2023-02-21T04:08:19.972Z,55.63
2023-02-21T04:10:52.523Z,53.83
2023-02-21T04:13:24.574Z,52.58
2023-02-21T04:15:52.814Z,53.38
2023-02-21T04:18:20.783Z,54.10
2023-02-21T04:20:50.900Z,56.15
2023-02-21T04:23:21.003Z,54.53
2023-02-21T04:25:48.991Z,52.55
2023-02-21T04:28:23.077Z,51.35
2023-02-21T04:30:50.679Z,53.70
2023-02-21T04:33:18.171Z,52.45
2023-02-21T04:35:45.957Z,51.05
2023-02-21T04:38:24.184Z,51.03
2023-02-21T04:40:51.827Z,50.08
2023-02-21T04:43:21.110Z,50.92
2023-02-21T04:45:48.609Z,49.03
2023-02-21T04:48:16.195Z,49.83
2023-02-21T04:50:44.057Z,49.92
2023-02-21T04:53:11.361Z,48.50
2023-02-21T04:55:38.803Z,48.95
2023-02-21T04:58:06.418Z,48.90
2023-02-21T05:00:34.021Z,50.50
2023-02-21T05:03:01.626Z,46.25
2023-02-21T05:05:29.028Z,46.88
2023-02-21T05:07:56.487Z,48.55
2023-02-21T05:10:26.996Z,46.67
2023-02-21T05:12:58.594Z,44.60
2023-02-21T05:15:26.036Z,44.63
2023-02-21T05:17:53.415Z,42.35
2023-02-21T05:20:20.986Z,43.55
2023-02-21T05:22:49.589Z,42.83
2023-02-21T05:25:22.995Z,47.63
2023-02-21T05:27:52.199Z,45.25
2023-02-21T05:30:22.553Z,46.00
2023-02-21T05:32:50.862Z,45.13
2023-02-21T05:35:19.035Z,44.70
2023-02-21T05:37:46.524Z,44.65
2023-02-21T05:40:14.754Z,44.67
2023-02-21T05:42:43.588Z,45.58
2023-02-21T05:45:11.553Z,47.25
2023-02-21T05:47:39.234Z,50.63
2023-02-21T05:50:07.005Z,51.85
2023-02-21T05:52:34.461Z,49.22
2023-02-21T05:55:01.856Z,50.53
2023-02-21T05:57:29.254Z,49.38
2023-02-21T05:59:56.620Z,48.55
2023-02-21T06:02:24.105Z,47.97
2023-02-21T06:04:51.602Z,56.42
2023-02-21T06:07:19.069Z,52.15
2023-02-21T06:09:46.533Z,52.08
2023-02-21T06:12:13.960Z,51.55
2023-02-21T06:14:41.319Z,52.53
2023-02-21T06:17:08.680Z,50.38
2023-02-21T06:19:36.034Z,48.58
2023-02-21T06:22:03.480Z,48.28
2023-02-21T06:24:30.885Z,48.83
2023-02-21T06:26:58.314Z,49.75
2023-02-21T06:29:25.778Z,47.25
2023-02-21T06:32:01.004Z,48.10
2023-02-21T06:34:28.904Z,49.85
2023-02-21T06:36:57.084Z,48.00
2023-02-21T06:39:24.771Z,46.85
2023-02-21T06:41:53.341Z,49.65
2023-02-21T06:44:21.446Z,48.17
2023-02-21T06:46:50.613Z,48.28
2023-02-21T06:49:18.003Z,48.05
2023-02-21T06:51:45.634Z,50.75
2023-02-21T06:54:13.589Z,49.97
2023-02-21T06:56:41.037Z,49.67
2023-02-21T06:59:08.876Z,50.10
2023-02-21T07:01:36.741Z,49.38
2023-02-21T07:04:04.443Z,49.90
2023-02-21T07:06:33.580Z,50.92
2023-02-21T07:09:01.073Z,50.53
2023-02-21T07:11:30.130Z,49.78
2023-02-21T07:13:59.387Z,50.80
2023-02-21T07:16:26.961Z,48.42
2023-02-21T07:18:54.816Z,49.55
2023-02-21T07:21:22.453Z,50.97
2023-02-21T07:23:49.823Z,51.53
2023-02-21T07:26:17.236Z,49.53
2023-02-21T07:28:46.101Z,49.35
2023-02-21T07:31:14.171Z,49.70
2023-02-21T07:33:42.015Z,45.30
2023-02-21T07:36:09.584Z,45.20
2023-02-21T07:38:36.972Z,45.17
2023-02-21T07:41:04.557Z,44.53
2023-02-21T07:43:32.174Z,45.03
2023-02-21T07:45:59.816Z,45.40
2023-02-21T07:48:27.445Z,44.03
2023-02-21T07:50:54.928Z,45.90
2023-02-21T07:53:22.272Z,43.03
2023-02-21T07:55:49.658Z,42.05
2023-02-21T07:58:17.049Z,41.50
2023-02-21T08:00:44.525Z,39.95
2023-02-21T08:03:14.001Z,42.40
2023-02-21T08:05:41.841Z,40.70
2023-02-21T08:08:10.321Z,41.28
2023-02-21T08:10:37.892Z,40.85
2023-02-21T08:13:06.365Z,41.50
2023-02-21T08:15:33.870Z,43.85
2023-02-21T08:18:01.329Z,46.28
2023-02-21T08:20:28.855Z,48.78
2023-02-21T08:22:56.234Z,50.17
2023-02-21T08:25:23.641Z,48.78
2023-02-21T08:27:55.266Z,48.83
2023-02-21T08:30:23.018Z,49.83
2023-02-21T08:32:51.377Z,53.72
2023-02-21T08:35:20.028Z,56.03
2023-02-21T08:37:49.143Z,55.03
2023-02-21T08:40:19.936Z,57.92
2023-02-21T08:42:51.797Z,58.08
2023-02-21T08:45:21.805Z,54.72
2023-02-21T08:47:49.784Z,53.10
2023-02-21T08:50:17.987Z,56.25
2023-02-21T08:52:49.836Z,56.33
2023-02-21T08:55:19.628Z,55.10
2023-02-21T08:57:52.104Z,58.40
2023-02-21T09:00:23.370Z,59.05
2023-02-21T09:02:52.289Z,57.53
2023-02-21T09:05:27.135Z,54.55
2023-02-21T09:07:58.885Z,55.45
2023-02-21T09:10:29.118Z,55.88
2023-02-21T09:12:56.664Z,57.95
2023-02-21T09:15:24.179Z,57.08
2023-02-21T09:17:52.382Z,60.72
2023-02-21T09:20:23.020Z,58.25
2023-02-21T09:22:50.460Z,57.25
2023-02-21T09:25:23.028Z,56.92
2023-02-21T09:27:53.362Z,60.03
2023-02-21T09:30:26.189Z,60.07
2023-02-21T09:32:55.064Z,57.72
2023-02-21T09:35:23.046Z,55.35
2023-02-21T09:37:50.547Z,56.72
2023-02-21T09:40:23.851Z,57.47
2023-02-21T09:42:54.835Z,59.00
2023-02-21T09:45:30.411Z,57.63
2023-02-21T09:48:00.831Z,58.17
2023-02-21T09:50:33.773Z,58.67
2023-02-21T09:53:02.612Z,61.88
2023-02-21T09:55:40.057Z,60.35
2023-02-21T09:58:16.057Z,62.03
2023-02-21T10:00:46.472Z,61.58
2023-02-21T10:03:26.216Z,58.83
2023-02-21T10:06:07.084Z,62.85
2023-02-21T10:08:48.233Z,69.50
2023-02-21T10:11:53.996Z,65.63
2023-02-21T10:14:40.503Z,61.08
2023-02-21T10:17:23.523Z,59.25
2023-02-21T10:19:55.801Z,62.88
2023-02-21T10:24:55.716Z,63.38
2023-02-21T10:27:26.670Z,63.92
2023-02-21T10:30:05.484Z,65.82
2023-02-21T10:32:33.345Z,65.00
2023-02-21T10:35:00.766Z,63.28
2023-02-21T10:37:41.976Z,64.30
2023-02-21T10:40:34.546Z,63.17
2023-02-21T10:45:46.821Z,63.97
2023-02-21T10:48:15.328Z,69.30
2023-02-21T10:51:05.022Z,69.00
2023-02-21T10:53:43.470Z,70.53
2023-02-21T10:56:21.797Z,69.05
2023-02-21T10:58:51.889Z,70.18
2023-02-21T11:01:26.630Z,70.78
2023-02-21T11:04:04.504Z,68.97
2023-02-21T11:06:33.702Z,70.65
2023-02-21T11:09:02.497Z,72.78
2023-02-21T11:11:39.510Z,73.75
2023-02-21T11:14:21.288Z,73.25
2023-02-21T11:17:07.123Z,71.82
2023-02-21T11:19:53.690Z,73.40
2023-02-21T11:22:42.934Z,75.70
2023-02-21T11:25:22.646Z,72.90
2023-02-21T11:28:04.175Z,75.00
2023-02-21T11:30:37.614Z,73.70
2023-02-21T11:33:06.500Z,69.72
2023-02-21T11:36:06.045Z,69.97
2023-02-21T11:38:41.503Z,72.10
2023-02-21T11:41:22.878Z,73.90
2023-02-21T11:43:52.496Z,71.80
2023-02-21T11:46:45.837Z,73.75
2023-02-21T11:50:03.654Z,75.70
2023-02-21T11:52:39.093Z,71.18
2023-02-21T11:55:14.595Z,73.43
2023-02-21T11:57:48.127Z,73.10
2023-02-21T12:01:01.833Z,72.93
2023-02-21T12:03:59.800Z,71.07
2023-02-21T12:06:38.617Z,68.80
2023-02-21T12:09:44.275Z,69.85
2023-02-21T12:12:11.621Z,70.40
2023-02-21T12:15:03.645Z,72.32
2023-02-21T12:17:44.775Z,71.90
2023-02-21T12:20:33.905Z,71.97
2023-02-21T12:23:11.635Z,73.47
2023-02-21T12:25:50.954Z,71.45
2023-02-21T12:28:27.525Z,72.43
2023-02-21T12:31:03.590Z,75.47
2023-02-21T12:33:57.339Z,75.60
2023-02-21T12:36:45.283Z,75.72
2023-02-21T12:39:56.739Z,74.93
2023-02-21T12:42:56.002Z,74.22
2023-02-21T12:45:52.502Z,73.10
2023-02-21T12:48:56.939Z,73.60
2023-02-21T12:51:34.147Z,73.82
2023-02-21T12:54:13.560Z,72.13
2023-02-21T12:57:33.039Z,72.30
2023-02-21T13:00:07.884Z,72.60
2023-02-21T13:03:02.992Z,73.60
2023-02-21T13:05:44.330Z,72.85
2023-02-21T13:08:27.304Z,70.68
2023-02-21T13:11:03.583Z,72.43
2023-02-21T13:13:32.974Z,74.10
2023-02-21T13:16:06.782Z,66.95
2023-02-21T13:18:47.351Z,71.50
2023-02-21T13:21:41.776Z,70.35
2023-02-21T13:24:33.621Z,67.57
2023-02-21T13:27:19.655Z,67.20
2023-02-21T13:29:47.247Z,68.45
2023-02-21T13:32:17.369Z,66.93
2023-02-21T13:35:00.466Z,71.75
2023-02-21T13:37:34.175Z,70.65
2023-02-21T13:40:10.408Z,68.07
2023-02-21T13:42:39.663Z,63.30
2023-02-21T13:45:24.626Z,67.40
2023-02-21T13:48:00.345Z,66.18
2023-02-21T13:50:40.149Z,70.55
2023-02-21T13:53:24.372Z,66.80
2023-02-21T13:56:06.783Z,74.53
2023-02-21T13:58:37.566Z,73.68
2023-02-21T14:01:17.213Z,73.38
2023-02-21T14:03:45.470Z,73.72
2023-02-21T14:06:13.042Z,70.32
2023-02-21T14:08:50.374Z,68.32
2023-02-21T14:11:29.466Z,64.57
2023-02-21T14:14:03.017Z,65.50
2023-02-21T14:17:03.303Z,66.90
2023-02-21T14:19:30.692Z,69.60
2023-02-21T14:22:03.295Z,70.45
2023-02-21T14:24:36.279Z,71.10
2023-02-21T14:27:05.430Z,70.25
2023-02-21T14:30:06.701Z,71.25
2023-02-21T14:32:49.913Z,73.75
2023-02-21T14:35:20.163Z,72.35
2023-02-21T14:38:16.404Z,71.95
2023-02-21T14:41:09.229Z,66.50
2023-02-21T14:43:56.087Z,71.88
2023-02-21T14:46:49.137Z,73.38
2023-02-21T14:51:52.721Z,67.72
2023-02-21T14:54:35.621Z,70.25
2023-02-21T14:57:36.020Z,67.57
2023-02-21T15:00:20.408Z,68.00
2023-02-21T15:03:12.464Z,68.43
2023-02-21T15:05:53.310Z,67.07
2023-02-21T15:08:26.002Z,67.32
2023-02-21T15:11:05.591Z,68.13
2023-02-21T15:13:35.345Z,68.70
2023-02-21T15:16:09.352Z,65.65
2023-02-21T15:18:38.892Z,66.72
2023-02-21T15:21:18.673Z,64.28
2023-02-21T15:24:12.864Z,67.75
2023-02-21T15:26:40.747Z,64.38
2023-02-21T15:29:15.602Z,67.13
2023-02-21T15:31:48.118Z,64.55
2023-02-21T15:34:43.267Z,69.40
2023-02-21T15:37:22.233Z,66.55
2023-02-21T15:40:00.178Z,70.63
2023-02-21T15:42:28.699Z,68.18
2023-02-21T15:45:03.367Z,65.65
2023-02-21T15:47:33.046Z,65.30
2023-02-21T15:50:24.157Z,74.07
2023-02-21T15:52:53.505Z,75.32
2023-02-21T15:55:22.910Z,73.05
2023-02-21T15:58:07.148Z,74.75
2023-02-21T16:00:39.775Z,72.57
2023-02-21T16:03:43.704Z,71.43
2023-02-21T16:06:28.558Z,72.32
2023-02-21T16:09:02.077Z,71.63
2023-02-21T16:11:59.013Z,75.28
2023-02-21T16:14:45.739Z,72.57
2023-02-21T16:17:13.147Z,72.38
2023-02-21T16:19:42.644Z,72.90
2023-02-21T16:25:25.738Z,69.20
2023-02-21T16:28:00.414Z,70.05
2023-02-21T16:30:32.225Z,75.18
2023-02-21T16:33:02.717Z,75.60
2023-02-21T16:35:31.304Z,72.72
2023-02-21T16:38:00.389Z,75.35
2023-02-21T16:40:33.745Z,75.70
2023-02-21T16:43:02.693Z,70.15
2023-02-21T16:45:31.979Z,69.47
2023-02-21T16:48:05.147Z,66.68
2023-02-21T16:50:34.339Z,71.78
2023-02-21T16:53:02.896Z,70.18
2023-02-21T16:55:30.903Z,67.43
2023-02-21T16:58:20.785Z,69.85
2023-02-21T17:00:48.401Z,66.57
2023-02-21T17:03:15.765Z,70.88
2023-02-21T17:05:43.158Z,71.82
2023-02-21T17:08:10.804Z,70.35
2023-02-21T17:10:38.221Z,68.45
2023-02-21T17:13:05.719Z,72.28
2023-02-21T17:15:33.219Z,68.68
2023-02-21T17:18:01.218Z,69.88
2023-02-21T17:20:28.975Z,71.45
2023-02-21T17:22:58.452Z,67.38
2023-02-21T17:25:26.878Z,69.45
2023-02-21T17:27:54.355Z,74.43
2023-02-21T17:30:24.621Z,70.28
2023-02-21T17:32:52.446Z,68.05
2023-02-21T17:35:22.521Z,69.53
2023-02-21T17:37:50.248Z,68.28
2023-02-21T17:40:19.595Z,66.05
2023-02-21T17:42:47.492Z,65.75
2023-02-21T17:45:19.386Z,66.03
2023-02-21T17:47:47.896Z,66.47
2023-02-21T17:50:15.675Z,69.13
2023-02-21T17:52:43.757Z,68.68
2023-02-21T17:55:18.741Z,64.65
2023-02-21T17:57:46.175Z,67.32
2023-02-21T18:00:24.777Z,65.57
2023-02-21T18:02:54.287Z,64.68
2023-02-21T18:05:22.375Z,68.38
2023-02-21T18:07:51.644Z,66.78
2023-02-21T18:10:21.768Z,63.67
2023-02-21T18:12:51.314Z,65.57
2023-02-21T18:15:20.917Z,65.07
2023-02-21T18:17:48.823Z,68.38
2023-02-21T18:20:17.050Z,65.60
2023-02-21T18:22:45.108Z,65.75
2023-02-21T18:25:15.222Z,70.30
2023-02-21T18:27:42.731Z,77.03
2023-02-21T18:30:10.941Z,82.68
2023-02-21T18:32:38.529Z,81.63
2023-02-21T18:35:06.347Z,76.57
2023-02-21T18:37:33.760Z,70.97
2023-02-21T18:40:01.535Z,72.20
2023-02-21T18:42:29.037Z,69.38
2023-02-21T18:44:56.544Z,74.55
2023-02-21T18:47:26.201Z,70.32
2023-02-21T18:49:56.350Z,67.35
2023-02-21T18:52:24.078Z,67.93
2023-02-21T18:54:51.861Z,66.88
2023-02-21T18:57:21.776Z,65.63
2023-02-21T18:59:50.654Z,70.75
2023-02-21T19:02:18.912Z,74.80
2023-02-21T19:04:46.516Z,70.32
2023-02-21T19:07:17.054Z,68.68
2023-02-21T19:09:50.332Z,69.72
2023-02-21T19:12:17.970Z,67.50
2023-02-21T19:14:45.792Z,65.80
2023-02-21T19:17:13.225Z,68.35
2023-02-21T19:19:40.679Z,67.80
2023-02-21T19:22:08.195Z,68.38
2023-02-21T19:24:35.689Z,67.82
2023-02-21T19:27:03.398Z,67.25
2023-02-21T19:29:30.902Z,66.90
2023-02-21T19:31:58.492Z,67.18
2023-02-21T19:34:26.090Z,69.07
2023-02-21T19:36:53.494Z,69.38
2023-02-21T19:39:20.883Z,69.03
2023-02-21T19:41:48.496Z,71.80
2023-02-21T19:44:16.158Z,70.78
2023-02-21T19:46:43.612Z,70.70
2023-02-21T19:49:18.512Z,71.55
2023-02-21T19:51:47.692Z,69.90
2023-02-21T19:54:16.339Z,71.32
2023-02-21T19:56:43.942Z,71.43
2023-02-21T19:59:12.278Z,68.60
2023-02-21T20:01:40.025Z,69.88
2023-02-21T20:04:07.697Z,73.43
2023-02-21T20:06:37.400Z,70.47
2023-02-21T20:09:07.118Z,69.50
2023-02-21T20:11:35.875Z,72.45
2023-02-21T20:14:03.960Z,72.07
2023-02-21T20:16:33.632Z,72.53
2023-02-21T20:19:01.401Z,72.47
2023-02-21T20:21:30.805Z,71.20
2023-02-21T20:23:58.226Z,73.35
2023-02-21T20:26:26.429Z,72.15
2023-02-21T20:28:55.377Z,69.60
2023-02-21T20:31:26.867Z,71.72
2023-02-21T20:33:55.438Z,71.28
2023-02-21T20:36:48.985Z,73.53
2023-02-21T20:39:28.679Z,67.28
2023-02-21T20:41:56.694Z,65.25
2023-02-21T20:44:25.065Z,72.63
2023-02-21T20:46:52.468Z,70.68
2023-02-21T20:49:21.410Z,70.50
2023-02-21T20:51:49.614Z,66.53
2023-02-21T20:54:21.997Z,69.20
2023-02-21T20:56:54.845Z,69.63
2023-02-21T20:59:34.135Z,68.68
2023-02-21T21:02:02.424Z,71.32
2023-02-21T21:04:35.911Z,68.13
2023-02-21T21:07:09.970Z,72.03
2023-02-21T21:09:38.768Z,68.57
2023-02-21T21:12:17.787Z,68.72
2023-02-21T21:14:47.725Z,69.15
2023-02-21T21:17:17.886Z,67.45
2023-02-21T21:19:47.978Z,68.80
2023-02-21T21:22:18.929Z,69.15
2023-02-21T21:24:46.656Z,69.35
2023-02-21T21:27:14.798Z,70.82
2023-02-21T21:29:44.201Z,71.25
2023-02-21T21:32:14.908Z,72.07
2023-02-21T21:34:50.711Z,74.32
2023-02-21T21:37:20.882Z,75.40
2023-02-21T21:39:54.494Z,75.93
2023-02-21T21:42:31.060Z,74.65
2023-02-21T21:44:58.501Z,73.88
2023-02-21T21:47:28.670Z,74.90
2023-02-21T21:49:56.130Z,76.85
2023-02-21T21:52:26.275Z,73.43
2023-02-21T21:54:53.822Z,75.38
2023-02-21T21:57:22.806Z,74.80
2023-02-21T21:59:50.449Z,71.40
2023-02-21T22:02:18.533Z,76.70
2023-02-21T22:04:46.376Z,77.85
2023-02-21T22:07:15.211Z,75.25
2023-02-21T22:09:42.664Z,73.50
2023-02-21T22:12:16.024Z,75.60
2023-02-21T22:14:43.461Z,77.53
2023-02-21T22:17:11.729Z,78.07
2023-02-21T22:19:39.130Z,77.20
2023-02-21T22:22:08.309Z,78.13
2023-02-21T22:24:35.943Z,73.80
2023-02-21T22:27:03.396Z,77.10
2023-02-21T22:29:31.677Z,78.13
2023-02-21T22:31:59.346Z,77.28
2023-02-21T22:34:26.959Z,78.03
2023-02-21T22:36:57.418Z,78.68
2023-02-21T22:39:26.208Z,75.22
2023-02-21T22:41:54.367Z,77.25
2023-02-21T22:44:24.842Z,76.65
2023-02-21T22:46:59.777Z,74.38
2023-02-21T22:49:28.742Z,74.60
2023-02-21T22:51:59.764Z,78.05
2023-02-21T22:54:27.403Z,77.30
2023-02-21T22:57:04.094Z,78.82
2023-02-21T22:59:35.284Z,78.80
2023-02-21T23:02:03.202Z,77.88
2023-02-21T23:04:36.631Z,76.57
2023-02-21T23:07:05.399Z,76.35
2023-02-21T23:09:36.964Z,78.03
2023-02-21T23:12:05.881Z,76.95
2023-02-21T23:14:36.686Z,75.50
2023-02-21T23:17:04.144Z,78.07
2023-02-21T23:19:32.220Z,76.78
2023-02-21T23:22:00.044Z,79.13
2023-02-21T23:24:28.394Z,74.93
2023-02-21T23:26:55.887Z,79.93
2023-02-21T23:29:26.671Z,77.47
2023-02-21T23:31:57.750Z,76.93
2023-02-21T23:34:40.121Z,77.25
2023-02-21T23:39:36.433Z,77.78
2023-02-21T23:42:03.977Z,78.72
2023-02-21T23:44:36.079Z,80.05
2023-02-21T23:49:33.504Z,77.20
2023-02-21T23:52:01.806Z,77.95
2023-02-21T23:54:29.486Z,81.47
2023-02-21T23:57:00.466Z,79.03
2023-02-21T23:59:28.401Z,80.43
